createdAt,value
2019-03-13T00:00:41.681Z,9.65
2019-03-13T00:01:41.711Z,9.58
2019-03-13T00:02:41.738Z,9.48
2019-03-13T00:03:41.766Z,9.50
2019-03-13T00:04:41.797Z,9.46
2019-03-13T00:05:41.825Z,9.48
2019-03-13T00:06:41.853Z,9.43
2019-03-13T00:07:41.882Z,9.43
2019-03-13T00:08:41.909Z,9.40
2019-03-13T00:09:41.937Z,9.40
2019-03-13T00:10:41.964Z,9.38
2019-03-13T00:11:41.999Z,9.29
2019-03-13T00:12:42.022Z,9.29
2019-03-13T00:13:42.053Z,9.28
2019-03-13T00:14:42.078Z,9.38
2019-03-13T00:15:42.112Z,9.35
2019-03-13T00:16:42.134Z,9.47
2019-03-13T00:17:42.162Z,9.43
2019-03-13T00:18:42.193Z,9.35
2019-03-13T00:19:42.218Z,9.28
2019-03-13T00:20:42.249Z,9.24
2019-03-13T00:21:42.277Z,9.31
2019-03-13T00:22:42.354Z,9.33
2019-03-13T00:23:42.332Z,9.29
2019-03-13T00:24:42.361Z,9.28
2019-03-13T00:25:42.388Z,9.28
2019-03-13T00:26:42.415Z,9.31
2019-03-13T00:27:42.443Z,9.26
2019-03-13T00:28:42.472Z,9.29
2019-03-13T00:29:42.500Z,9.23
2019-03-13T00:30:42.527Z,9.13
2019-03-13T00:31:42.556Z,9.15
2019-03-13T00:32:42.583Z,9.13
2019-03-13T00:33:42.613Z,9.10
2019-03-13T00:34:42.640Z,9.10
2019-03-13T00:35:42.668Z,8.98
2019-03-13T00:36:42.697Z,8.92
2019-03-13T00:37:42.727Z,9.01
2019-03-13T00:38:42.754Z,9.02
2019-03-13T00:39:42.781Z,9.01
2019-03-13T00:40:42.809Z,8.87
2019-03-13T00:41:42.845Z,8.95
2019-03-13T00:42:42.864Z,8.92
2019-03-13T00:43:42.893Z,8.94
2019-03-13T00:44:42.921Z,8.87
2019-03-13T00:45:42.949Z,8.92
2019-03-13T00:46:42.977Z,8.96
2019-03-13T00:47:43.005Z,8.96
2019-03-13T00:48:43.034Z,8.91
2019-03-13T00:49:43.067Z,8.86
2019-03-13T00:50:43.089Z,8.79
2019-03-13T00:51:43.119Z,8.68
2019-03-13T00:52:43.145Z,8.66
2019-03-13T00:53:43.175Z,8.62
2019-03-13T00:54:43.203Z,8.56
2019-03-13T00:55:43.230Z,8.56
2019-03-13T00:56:43.258Z,8.59
2019-03-13T00:57:43.287Z,8.59
2019-03-13T00:58:43.364Z,8.58
2019-03-13T00:59:43.341Z,8.70
2019-03-13T01:00:43.369Z,8.65
2019-03-13T01:01:43.396Z,8.65
2019-03-13T01:02:43.425Z,8.52
2019-03-13T01:03:43.452Z,8.53
2019-03-13T01:04:43.482Z,8.58
2019-03-13T01:05:43.508Z,8.55
2019-03-13T01:06:43.535Z,8.56
2019-03-13T01:07:43.566Z,8.63
2019-03-13T01:08:43.593Z,8.52
2019-03-13T01:09:43.619Z,8.66
2019-03-13T01:10:43.688Z,8.56
2019-03-13T01:11:43.674Z,8.50
2019-03-13T01:12:43.703Z,8.59
2019-03-13T01:13:43.731Z,8.59
2019-03-13T01:14:43.757Z,8.58
2019-03-13T01:15:43.785Z,8.55
2019-03-13T01:16:43.814Z,8.66
2019-03-13T01:17:43.846Z,8.58
2019-03-13T01:18:43.876Z,8.52
2019-03-13T01:19:43.897Z,8.50
2019-03-13T01:20:43.925Z,8.50
2019-03-13T01:21:43.953Z,8.47
2019-03-13T01:22:43.979Z,8.45
2019-03-13T01:23:44.032Z,8.52
2019-03-13T01:24:44.034Z,8.56
2019-03-13T01:25:44.091Z,8.65
2019-03-13T01:26:44.120Z,8.63
2019-03-13T01:27:44.144Z,8.63
2019-03-13T01:28:44.378Z,8.68
2019-03-13T01:29:44.200Z,8.66
2019-03-13T01:30:44.934Z,8.62
2019-03-13T01:31:45.666Z,8.58
2019-03-13T01:32:44.277Z,8.56
2019-03-13T01:34:44.614Z,8.37
2019-03-13T01:36:44.388Z,8.47
2019-03-13T01:37:44.417Z,8.52
2019-03-13T01:38:44.446Z,8.45
2019-03-13T01:39:44.470Z,8.41
2019-03-13T01:40:44.474Z,8.48
2019-03-13T01:41:44.503Z,8.44
2019-03-13T01:42:44.531Z,8.44
2019-03-13T01:43:44.559Z,8.47
2019-03-13T01:44:44.585Z,8.53
2019-03-13T01:45:44.614Z,8.53
2019-03-13T01:46:44.640Z,8.70
2019-03-13T01:47:44.667Z,8.71
2019-03-13T01:48:44.697Z,8.61
2019-03-13T01:49:44.725Z,8.44
2019-03-13T01:50:44.751Z,8.36
2019-03-13T01:51:44.778Z,8.33
2019-03-13T01:52:44.817Z,8.36
2019-03-13T01:53:44.835Z,8.41
2019-03-13T01:54:44.862Z,8.20
2019-03-13T01:55:44.888Z,8.10
2019-03-13T01:56:44.916Z,7.92
2019-03-13T01:57:44.948Z,7.77
2019-03-13T01:58:44.974Z,7.82
2019-03-13T01:59:44.997Z,7.71
2019-03-13T02:00:45.028Z,7.80
2019-03-13T02:01:45.057Z,7.61
2019-03-13T02:02:45.081Z,7.55
2019-03-13T02:03:45.107Z,7.57
2019-03-13T02:04:45.135Z,7.64
2019-03-13T02:05:45.163Z,7.82
2019-03-13T02:06:45.188Z,7.64
2019-03-13T02:07:45.217Z,7.74
2019-03-13T02:08:45.245Z,7.46
2019-03-13T02:09:45.273Z,7.45
2019-03-13T02:10:45.354Z,7.35
2019-03-13T02:11:45.384Z,7.42
2019-03-13T02:12:45.356Z,7.46
2019-03-13T02:13:45.382Z,7.49
2019-03-13T02:14:45.435Z,7.52
2019-03-13T02:15:45.436Z,7.57
2019-03-13T02:16:45.487Z,7.68
2019-03-13T02:17:45.515Z,7.68
2019-03-13T02:18:45.542Z,7.67
2019-03-13T02:19:45.569Z,7.69
2019-03-13T02:20:45.596Z,7.61
2019-03-13T02:22:45.651Z,7.46
2019-03-13T02:23:45.882Z,7.53
2019-03-13T02:24:45.681Z,7.49
2019-03-13T02:25:45.709Z,7.46
2019-03-13T02:26:45.890Z,7.48
2019-03-13T02:27:45.766Z,7.50
2019-03-13T02:28:45.791Z,7.46
2019-03-13T02:29:45.818Z,7.50
2019-03-13T02:30:45.845Z,7.63
2019-03-13T02:31:45.873Z,7.55
2019-03-13T02:32:45.901Z,7.55
2019-03-13T02:33:45.928Z,7.57
2019-03-13T02:34:45.960Z,7.61
2019-03-13T02:35:45.983Z,7.63
2019-03-13T02:36:46.011Z,7.63
2019-03-13T02:37:46.040Z,7.60
2019-03-13T02:38:46.065Z,7.58
2019-03-13T02:39:46.095Z,7.50
2019-03-13T02:40:46.120Z,7.52
2019-03-13T02:41:46.147Z,7.52
2019-03-13T02:42:46.175Z,7.48
2019-03-13T02:43:46.204Z,7.46
2019-03-13T02:44:46.229Z,7.52
2019-03-13T02:45:46.257Z,7.64
2019-03-13T02:46:46.284Z,7.49
2019-03-13T02:47:46.311Z,7.48
2019-03-13T02:48:46.338Z,7.48
2019-03-13T02:49:46.416Z,7.64
2019-03-13T02:50:46.393Z,7.64
2019-03-13T02:51:46.423Z,7.69
2019-03-13T02:52:46.449Z,7.69
2019-03-13T02:53:46.475Z,7.60
2019-03-13T02:54:46.511Z,7.67
2019-03-13T02:55:46.531Z,7.63
2019-03-13T02:56:46.558Z,7.60
2019-03-13T02:57:46.589Z,7.50
2019-03-13T02:58:46.613Z,7.57
2019-03-13T02:59:46.641Z,7.61
2019-03-13T03:00:46.671Z,7.68
2019-03-13T03:01:46.694Z,7.69
2019-03-13T03:02:46.724Z,7.67
2019-03-13T03:03:46.751Z,7.85
2019-03-13T03:04:46.778Z,7.71
2019-03-13T03:05:46.809Z,7.72
2019-03-13T03:06:46.837Z,7.71
2019-03-13T03:07:46.868Z,7.72
2019-03-13T03:08:46.888Z,7.83
2019-03-13T03:09:46.917Z,7.77
2019-03-13T03:10:46.942Z,7.80
2019-03-13T03:11:46.970Z,7.79
2019-03-13T03:12:46.998Z,7.82
2019-03-13T03:13:47.026Z,7.74
2019-03-13T03:14:47.052Z,7.67
2019-03-13T03:15:47.078Z,7.67
2019-03-13T03:16:47.116Z,7.77
2019-03-13T03:17:47.160Z,7.74
2019-03-13T03:18:47.160Z,7.67
2019-03-13T03:19:47.188Z,7.83
2019-03-13T03:20:47.216Z,7.74
2019-03-13T03:21:47.247Z,7.82
2019-03-13T03:22:47.271Z,7.67
2019-03-13T03:23:47.299Z,7.71
2019-03-13T03:24:47.346Z,7.72
2019-03-13T03:25:47.355Z,7.71
2019-03-13T03:26:47.389Z,7.72
2019-03-13T03:27:47.409Z,7.72
2019-03-13T03:28:47.435Z,7.63
2019-03-13T03:29:47.462Z,7.61
2019-03-13T03:30:47.489Z,7.60
2019-03-13T03:31:47.516Z,7.48
2019-03-13T03:32:47.581Z,7.49
2019-03-13T03:33:47.578Z,7.43
2019-03-13T03:34:47.613Z,7.49
2019-03-13T03:35:47.635Z,7.48
2019-03-13T03:36:47.655Z,7.50
2019-03-13T03:37:47.691Z,7.48
2019-03-13T03:38:47.706Z,7.48
2019-03-13T03:39:47.733Z,7.42
2019-03-13T03:40:47.765Z,7.42
2019-03-13T03:41:47.788Z,7.43
2019-03-13T03:42:47.815Z,7.31
2019-03-13T03:43:47.842Z,7.31
2019-03-13T03:44:47.870Z,7.32
2019-03-13T03:45:47.898Z,7.25
2019-03-13T03:46:47.973Z,7.24
2019-03-13T03:47:48.145Z,7.28
2019-03-13T03:48:47.980Z,7.23
2019-03-13T03:49:48.005Z,7.24
2019-03-13T03:50:48.035Z,7.24
2019-03-13T03:51:48.204Z,7.25
2019-03-13T03:52:48.098Z,7.25
2019-03-13T03:53:48.115Z,7.21
2019-03-13T03:54:48.140Z,7.17
2019-03-13T03:55:48.168Z,7.23
2019-03-13T03:56:48.195Z,7.15
2019-03-13T03:57:48.221Z,7.15
2019-03-13T03:58:48.248Z,7.16
2019-03-13T03:59:48.277Z,7.27
2019-03-13T04:00:48.354Z,7.34
2019-03-13T04:01:48.331Z,7.32
2019-03-13T04:02:48.413Z,7.32
2019-03-13T04:03:48.385Z,7.34
2019-03-13T04:04:48.412Z,7.32
2019-03-13T04:05:48.438Z,7.37
2019-03-13T04:06:48.469Z,7.28
2019-03-13T04:07:48.492Z,7.31
2019-03-13T04:08:48.520Z,7.24
2019-03-13T04:09:48.550Z,7.28
2019-03-13T04:10:48.574Z,7.34
2019-03-13T04:11:48.605Z,7.37
2019-03-13T04:12:48.628Z,7.48
2019-03-13T04:13:48.663Z,7.49
2019-03-13T04:14:48.681Z,7.57
2019-03-13T04:15:48.709Z,7.82
2019-03-13T04:16:48.750Z,7.60
2019-03-13T04:17:48.770Z,7.68
2019-03-13T04:18:48.790Z,7.67
2019-03-13T04:19:48.817Z,7.67
2019-03-13T04:20:48.845Z,7.57
2019-03-13T04:21:48.871Z,7.64
2019-03-13T04:22:48.898Z,7.60
2019-03-13T04:23:49.005Z,7.55
2019-03-13T04:24:48.953Z,7.53
2019-03-13T04:25:48.979Z,7.45
2019-03-13T04:26:49.016Z,7.50
2019-03-13T04:27:49.042Z,7.28
2019-03-13T04:28:49.065Z,7.31
2019-03-13T04:29:49.088Z,7.35
2019-03-13T04:30:49.113Z,7.37
2019-03-13T04:31:49.141Z,7.48
2019-03-13T04:32:49.166Z,7.48
2019-03-13T04:33:49.196Z,7.46
2019-03-13T04:34:49.221Z,7.53
2019-03-13T04:35:49.254Z,7.46
2019-03-13T04:36:49.278Z,7.32
2019-03-13T04:37:49.306Z,7.45
2019-03-13T04:38:49.335Z,7.49
2019-03-13T04:39:49.357Z,7.45
2019-03-13T04:40:49.382Z,7.40
2019-03-13T04:41:49.409Z,7.35
2019-03-13T04:42:49.436Z,7.40
2019-03-13T04:43:49.514Z,7.37
2019-03-13T04:44:49.490Z,7.35
2019-03-13T04:45:49.517Z,7.17
2019-03-13T04:46:49.542Z,7.28
2019-03-13T04:47:49.574Z,7.25
2019-03-13T04:48:49.597Z,7.31
2019-03-13T04:49:49.623Z,7.28
2019-03-13T04:50:49.650Z,7.23
2019-03-13T04:51:49.676Z,7.17
2019-03-13T04:52:49.706Z,7.20
2019-03-13T04:53:49.731Z,7.15
2019-03-13T04:54:49.757Z,7.23
2019-03-13T04:55:52.349Z,7.16
2019-03-13T04:56:49.810Z,7.23
2019-03-13T04:57:49.840Z,7.32
2019-03-13T04:58:49.864Z,7.13
2019-03-13T04:59:49.889Z,7.05
2019-03-13T05:00:49.917Z,7.03
2019-03-13T05:01:49.947Z,7.06
2019-03-13T05:02:49.969Z,6.94
2019-03-13T05:03:49.997Z,7.09
2019-03-13T05:04:50.023Z,6.98
2019-03-13T05:05:50.051Z,7.05
2019-03-13T05:06:50.075Z,6.88
2019-03-13T05:07:50.103Z,6.88
2019-03-13T05:08:50.129Z,6.89
2019-03-13T05:09:50.156Z,6.79
2019-03-13T05:10:50.183Z,6.84
2019-03-13T05:11:50.209Z,6.88
2019-03-13T05:12:50.257Z,6.74
2019-03-13T05:13:50.264Z,6.71
2019-03-13T05:14:50.289Z,6.74
2019-03-13T05:15:50.316Z,6.81
2019-03-13T05:16:50.344Z,6.70
2019-03-13T05:17:50.368Z,6.79
2019-03-13T05:18:50.393Z,6.76
2019-03-13T05:19:50.420Z,6.67
2019-03-13T05:20:50.449Z,6.66
2019-03-13T05:21:50.475Z,6.73
2019-03-13T05:22:50.499Z,6.69
2019-03-13T05:23:50.528Z,6.79
2019-03-13T05:24:50.553Z,6.85
2019-03-13T05:25:50.579Z,6.80
2019-03-13T05:26:50.606Z,6.74
2019-03-13T05:27:50.633Z,6.77
2019-03-13T05:28:50.660Z,6.77
2019-03-13T05:29:50.692Z,6.74
2019-03-13T05:30:53.048Z,6.77
2019-03-13T05:31:50.738Z,6.89
2019-03-13T05:32:50.766Z,6.98
2019-03-13T05:33:50.803Z,6.81
2019-03-13T05:34:50.820Z,6.80
2019-03-13T05:35:50.845Z,6.85
2019-03-13T05:36:50.876Z,6.92
2019-03-13T05:37:51.004Z,6.89
2019-03-13T05:38:50.926Z,6.87
2019-03-13T05:39:50.953Z,6.89
2019-03-13T05:40:50.978Z,6.94
2019-03-13T05:41:51.007Z,6.80
2019-03-13T05:42:51.036Z,6.81
2019-03-13T05:43:51.060Z,6.89
2019-03-13T05:44:51.086Z,6.85
2019-03-13T05:45:51.114Z,6.89
2019-03-13T05:46:51.139Z,6.77
2019-03-13T05:47:51.169Z,6.89
2019-03-13T05:48:51.194Z,6.81
2019-03-13T05:49:51.220Z,6.85
2019-03-13T05:50:51.247Z,6.91
2019-03-13T05:51:51.275Z,6.92
2019-03-13T05:52:51.301Z,6.91
2019-03-13T05:53:51.329Z,6.91
2019-03-13T05:54:51.353Z,6.85
2019-03-13T05:55:51.381Z,6.77
2019-03-13T05:56:51.407Z,6.70
2019-03-13T05:57:51.435Z,6.74
2019-03-13T05:58:51.460Z,6.70
2019-03-13T05:59:51.488Z,6.70
2019-03-13T06:00:51.514Z,6.70
2019-03-13T06:01:51.541Z,6.59
2019-03-13T06:02:51.579Z,6.49
2019-03-13T06:03:51.599Z,6.52
2019-03-13T06:04:51.621Z,6.48
2019-03-13T06:05:51.647Z,6.56
2019-03-13T06:06:51.672Z,6.38
2019-03-13T06:07:51.701Z,6.38
2019-03-13T06:08:51.732Z,6.54
2019-03-13T06:09:51.754Z,6.37
2019-03-13T06:10:51.781Z,6.36
2019-03-13T06:11:51.807Z,6.44
2019-03-13T06:12:51.833Z,6.56
2019-03-13T06:13:51.863Z,6.66
2019-03-13T06:14:51.886Z,6.69
2019-03-13T06:15:51.914Z,6.66
2019-03-13T06:16:51.942Z,6.73
2019-03-13T06:17:51.969Z,6.67
2019-03-13T06:18:53.105Z,6.69
2019-03-13T06:19:52.026Z,6.70
2019-03-13T06:20:52.143Z,6.73
2019-03-13T06:21:52.073Z,6.71
2019-03-13T06:22:52.100Z,6.85
2019-03-13T06:23:52.128Z,6.94
2019-03-13T06:24:52.155Z,6.89
2019-03-13T06:25:52.181Z,7.07
2019-03-13T06:26:52.206Z,7.17
2019-03-13T06:27:52.236Z,7.42
2019-03-13T06:28:52.261Z,7.25
2019-03-13T06:29:52.287Z,7.25
2019-03-13T06:30:52.315Z,7.27
2019-03-13T06:31:52.342Z,7.13
2019-03-13T06:32:52.439Z,7.39
2019-03-13T06:33:52.395Z,7.17
2019-03-13T06:34:52.422Z,7.35
2019-03-13T06:35:52.473Z,7.48
2019-03-13T06:36:52.482Z,7.52
2019-03-13T06:37:52.502Z,7.71
2019-03-13T06:38:52.528Z,7.69
2019-03-13T06:39:52.556Z,7.61
2019-03-13T06:40:52.585Z,7.80
2019-03-13T06:41:52.611Z,7.89
2019-03-13T06:42:52.635Z,7.92
2019-03-13T06:43:52.663Z,7.93
2019-03-13T06:44:52.691Z,7.95
2019-03-13T06:45:52.717Z,7.92
2019-03-13T06:46:52.744Z,8.01
2019-03-13T06:47:52.774Z,8.02
2019-03-13T06:48:52.799Z,7.97
2019-03-13T06:49:52.825Z,7.97
2019-03-13T06:50:52.850Z,8.18
2019-03-13T06:51:52.881Z,8.15
2019-03-13T06:52:52.908Z,8.20
2019-03-13T06:53:52.936Z,8.33
2019-03-13T06:54:52.960Z,8.20
2019-03-13T06:55:52.988Z,8.28
2019-03-13T06:56:53.015Z,8.40
2019-03-13T06:57:53.043Z,8.23
2019-03-13T06:58:53.068Z,8.22
2019-03-13T06:59:53.095Z,8.19
2019-03-13T07:00:53.122Z,8.07
2019-03-13T07:01:53.152Z,8.07
2019-03-13T07:02:53.177Z,8.01
2019-03-13T07:03:53.204Z,7.98
2019-03-13T07:04:53.232Z,8.02
2019-03-13T07:05:53.258Z,8.12
2019-03-13T07:06:53.285Z,8.08
2019-03-13T07:07:53.311Z,8.05
2019-03-13T07:08:53.339Z,8.22
2019-03-13T07:09:53.364Z,8.38
2019-03-13T07:10:53.390Z,8.20
2019-03-13T07:11:53.419Z,8.23
2019-03-13T07:12:53.447Z,8.19
2019-03-13T07:13:53.473Z,8.20
2019-03-13T07:14:53.499Z,8.19
2019-03-13T07:15:53.527Z,7.97
2019-03-13T07:16:53.554Z,8.05
2019-03-13T07:17:53.582Z,8.10
2019-03-13T07:18:53.607Z,8.22
2019-03-13T07:19:53.634Z,8.37
2019-03-13T07:20:53.663Z,8.56
2019-03-13T07:21:53.690Z,8.65
2019-03-13T07:22:53.716Z,8.45
2019-03-13T07:23:53.743Z,8.34
2019-03-13T07:24:53.770Z,8.23
2019-03-13T07:25:53.796Z,8.30
2019-03-13T07:26:53.823Z,8.25
2019-03-13T07:27:53.851Z,8.34
2019-03-13T07:28:53.880Z,8.29
2019-03-13T07:29:53.907Z,8.33
2019-03-13T07:30:53.938Z,8.29
2019-03-13T07:31:53.962Z,8.52
2019-03-13T07:32:56.515Z,8.62
2019-03-13T07:33:54.017Z,8.61
2019-03-13T07:34:54.053Z,8.91
2019-03-13T07:35:54.072Z,8.77
2019-03-13T07:36:54.099Z,8.66
2019-03-13T07:37:54.124Z,8.71
2019-03-13T07:38:54.154Z,8.70
2019-03-13T07:39:54.181Z,8.65
2019-03-13T07:40:54.209Z,8.43
2019-03-13T07:41:54.236Z,8.47
2019-03-13T07:42:54.262Z,8.66
2019-03-13T07:43:54.292Z,8.83
2019-03-13T07:44:54.317Z,8.94
2019-03-13T07:45:54.396Z,8.87
2019-03-13T07:46:54.374Z,8.65
2019-03-13T07:47:54.400Z,8.87
2019-03-13T07:48:54.477Z,9.05
2019-03-13T07:49:54.523Z,9.43
2019-03-13T07:50:54.485Z,9.66
2019-03-13T07:51:54.561Z,9.76
2019-03-13T07:52:54.542Z,9.47
2019-03-13T07:53:54.570Z,9.42
2019-03-13T07:54:54.595Z,9.43
2019-03-13T07:55:54.623Z,9.32
2019-03-13T07:56:54.650Z,9.23
2019-03-13T07:57:54.679Z,9.31
2019-03-13T07:58:54.706Z,9.53
2019-03-13T07:59:54.736Z,9.90
2019-03-13T08:00:54.765Z,10.29
2019-03-13T08:01:54.793Z,10.44
2019-03-13T08:02:54.820Z,10.53
2019-03-13T08:03:54.874Z,10.52
2019-03-13T08:04:54.883Z,10.45
2019-03-13T08:05:54.906Z,10.63
2019-03-13T08:06:54.948Z,10.79
2019-03-13T08:07:54.962Z,10.89
2019-03-13T08:08:54.992Z,10.92
2019-03-13T08:09:55.041Z,11.02
2019-03-13T08:10:55.051Z,10.99
2019-03-13T08:11:55.080Z,11.00
2019-03-13T08:12:55.108Z,11.07
2019-03-13T08:13:55.141Z,10.92
2019-03-13T08:14:55.166Z,10.92
2019-03-13T08:15:55.200Z,10.84
2019-03-13T08:16:55.226Z,10.76
2019-03-13T08:17:55.254Z,10.60
2019-03-13T08:18:55.281Z,10.12
2019-03-13T08:19:55.314Z,10.11
2019-03-13T08:20:55.343Z,10.44
2019-03-13T08:21:55.372Z,10.64
2019-03-13T08:22:55.400Z,10.73
2019-03-13T08:23:55.431Z,10.86
2019-03-13T08:24:55.459Z,11.02
2019-03-13T08:25:55.490Z,11.32
2019-03-13T08:26:55.519Z,11.47
2019-03-13T08:27:55.549Z,11.39
2019-03-13T08:28:55.581Z,11.37
2019-03-13T08:29:55.608Z,11.32
2019-03-13T08:30:55.638Z,11.09
2019-03-13T08:31:55.666Z,11.37
2019-03-13T08:32:55.697Z,11.49
2019-03-13T08:33:55.728Z,11.76
2019-03-13T08:34:55.756Z,11.91
2019-03-13T08:35:55.789Z,11.98
2019-03-13T08:36:55.816Z,12.17
2019-03-13T08:37:55.847Z,12.04
2019-03-13T08:38:55.876Z,11.61
2019-03-13T08:39:55.906Z,11.43
2019-03-13T08:40:55.936Z,11.18
2019-03-13T08:41:55.967Z,10.92
2019-03-13T08:42:55.996Z,10.63
2019-03-13T08:43:56.026Z,10.51
2019-03-13T08:44:58.810Z,10.30
2019-03-13T08:45:56.087Z,10.15
2019-03-13T08:46:56.119Z,10.26
2019-03-13T08:47:56.146Z,10.20
2019-03-13T08:48:56.187Z,10.25
2019-03-13T08:49:56.206Z,10.32
2019-03-13T08:50:56.239Z,10.44
2019-03-13T08:51:56.267Z,10.32
2019-03-13T08:52:56.296Z,10.23
2019-03-13T08:53:56.447Z,10.01
2019-03-13T08:54:56.355Z,9.91
2019-03-13T08:55:56.385Z,10.07
2019-03-13T08:56:56.416Z,10.02
2019-03-13T08:57:56.445Z,10.34
2019-03-13T08:58:56.474Z,10.68
2019-03-13T08:59:56.503Z,12.56
2019-03-13T09:00:56.532Z,14.25
2019-03-13T09:01:56.562Z,16.85
2019-03-13T09:02:56.594Z,16.82
2019-03-13T09:03:56.624Z,15.86
2019-03-13T09:04:56.654Z,17.14
2019-03-13T09:05:56.685Z,17.96
2019-03-13T09:06:56.718Z,17.87
2019-03-13T09:07:56.749Z,16.70
2019-03-13T09:08:56.782Z,16.20
2019-03-13T09:09:56.907Z,15.35
2019-03-13T09:10:56.845Z,16.09
2019-03-13T09:11:56.877Z,16.63
2019-03-13T09:13:01.398Z,15.60
2019-03-13T09:13:56.947Z,15.83
2019-03-13T09:14:56.977Z,17.23
2019-03-13T09:15:57.011Z,16.31
2019-03-13T09:16:57.044Z,15.32
2019-03-13T09:17:57.078Z,16.30
2019-03-13T09:18:57.112Z,15.35
2019-03-13T09:19:57.147Z,16.11
2019-03-13T09:20:57.182Z,16.09
2019-03-13T09:21:57.215Z,15.39
2019-03-13T09:22:57.251Z,14.68
2019-03-13T09:23:57.284Z,14.07
2019-03-13T09:25:10.724Z,13.78
2019-03-13T09:25:57.352Z,13.46
2019-03-13T09:26:57.386Z,13.44
2019-03-13T09:27:57.420Z,13.26
2019-03-13T09:28:57.455Z,13.20
2019-03-13T09:29:57.490Z,13.54
2019-03-13T09:30:57.523Z,13.39
2019-03-13T09:31:57.561Z,15.57
2019-03-13T09:32:57.590Z,15.14
2019-03-13T09:33:57.625Z,14.81
2019-03-13T09:34:57.657Z,15.49
2019-03-13T09:35:57.740Z,15.86
2019-03-13T09:36:57.725Z,14.52
2019-03-13T09:37:57.759Z,17.14
2019-03-13T09:38:57.793Z,18.78
2019-03-13T09:39:57.827Z,19.32
2019-03-13T09:40:57.862Z,17.41
2019-03-13T09:41:57.898Z,16.39
2019-03-13T09:42:57.932Z,16.14
2019-03-13T09:43:59.866Z,14.77
2019-03-13T09:44:58.004Z,14.06
2019-03-13T09:45:58.039Z,13.38
2019-03-13T09:46:58.077Z,13.29
2019-03-13T09:47:58.108Z,12.96
2019-03-13T09:48:58.143Z,12.83
2019-03-13T09:49:58.178Z,12.56
2019-03-13T09:50:58.211Z,13.12
2019-03-13T09:51:58.248Z,13.23
2019-03-13T09:52:58.335Z,13.17
2019-03-13T09:53:58.316Z,14.04
2019-03-13T09:54:58.351Z,14.52
2019-03-13T09:55:58.385Z,14.21
2019-03-13T09:56:58.424Z,15.41
2019-03-13T09:57:58.454Z,17.84
2019-03-13T09:58:58.487Z,16.83
2019-03-13T09:59:58.524Z,16.08
2019-03-13T10:00:58.557Z,15.03
2019-03-13T10:01:58.591Z,14.92
2019-03-13T10:02:58.653Z,14.47
2019-03-13T10:03:58.662Z,14.12
2019-03-13T10:04:58.747Z,13.60
2019-03-13T10:05:58.730Z,13.49
2019-03-13T10:06:58.857Z,13.46
2019-03-13T10:07:58.799Z,13.36
2019-03-13T10:08:58.833Z,13.04
2019-03-13T10:09:58.878Z,13.08
2019-03-13T10:10:58.901Z,12.75
2019-03-13T10:11:58.933Z,12.79
2019-03-13T10:12:58.974Z,12.90
2019-03-13T10:13:59.002Z,12.89
2019-03-13T10:14:59.057Z,12.93
2019-03-13T10:15:59.069Z,12.75
2019-03-13T10:17:09.759Z,12.70
2019-03-13T10:17:59.139Z,12.53
2019-03-13T10:18:59.168Z,11.98
2019-03-13T10:19:59.202Z,11.96
2019-03-13T10:20:59.234Z,11.82
2019-03-13T10:21:59.265Z,11.86
2019-03-13T10:22:59.297Z,11.49
2019-03-13T10:23:59.329Z,11.76
2019-03-13T10:24:59.362Z,12.28
2019-03-13T10:25:59.394Z,12.62
2019-03-13T10:26:59.426Z,12.47
2019-03-13T10:27:59.460Z,12.86
2019-03-13T10:28:59.491Z,13.20
2019-03-13T10:29:59.524Z,14.51
2019-03-13T10:30:59.555Z,15.49
2019-03-13T10:31:59.598Z,14.18
2019-03-13T10:32:59.670Z,13.30
2019-03-13T10:33:59.654Z,12.79
2019-03-13T10:34:59.686Z,12.34
2019-03-13T10:35:59.719Z,12.09
2019-03-13T10:36:59.753Z,11.98
2019-03-13T10:38:12.810Z,11.80
2019-03-13T10:38:59.818Z,11.54
2019-03-13T10:39:59.851Z,11.54
2019-03-13T10:40:59.885Z,11.60
2019-03-13T10:41:59.922Z,11.67
2019-03-13T10:42:59.953Z,11.82
2019-03-13T10:43:59.981Z,11.90
2019-03-13T10:45:00.013Z,12.09
2019-03-13T10:46:00.047Z,12.04
2019-03-13T10:47:00.076Z,12.12
2019-03-13T10:48:00.112Z,11.94
2019-03-13T10:49:00.143Z,11.86
2019-03-13T10:50:00.426Z,11.86
2019-03-13T10:51:00.206Z,11.69
2019-03-13T10:52:00.237Z,11.75
2019-03-13T10:53:00.270Z,11.79
2019-03-13T10:54:00.302Z,11.99
2019-03-13T10:55:00.449Z,12.23
2019-03-13T10:56:00.364Z,13.88
2019-03-13T10:57:01.671Z,15.75
2019-03-13T10:58:00.432Z,16.08
2019-03-13T10:59:00.460Z,14.84
2019-03-13T11:00:00.493Z,15.23
2019-03-13T11:01:00.531Z,16.97
2019-03-13T11:02:00.558Z,19.16
2019-03-13T11:03:00.592Z,18.70
2019-03-13T11:04:00.628Z,16.57
2019-03-13T11:05:00.669Z,15.20
2019-03-13T11:06:00.697Z,14.10
2019-03-13T11:07:00.750Z,14.55
2019-03-13T11:08:00.766Z,13.97
2019-03-13T11:09:00.801Z,15.46
2019-03-13T11:10:00.837Z,14.14
2019-03-13T11:11:00.873Z,13.84
2019-03-13T11:12:00.927Z,13.49
2019-03-13T11:13:00.946Z,13.22
2019-03-13T11:14:14.439Z,12.92
2019-03-13T11:15:01.012Z,13.03
2019-03-13T11:16:01.049Z,12.38
2019-03-13T11:17:01.084Z,12.28
2019-03-13T11:18:01.119Z,12.23
2019-03-13T11:19:01.151Z,12.12
2019-03-13T11:20:01.186Z,12.35
2019-03-13T11:21:01.220Z,12.49
2019-03-13T11:22:01.254Z,12.32
2019-03-13T11:23:01.288Z,12.37
2019-03-13T11:24:01.374Z,12.54
2019-03-13T11:25:01.354Z,12.49
2019-03-13T11:26:01.388Z,12.39
2019-03-13T11:27:01.423Z,12.29
2019-03-13T11:28:01.455Z,12.07
2019-03-13T11:29:01.492Z,12.07
2019-03-13T11:30:01.521Z,12.16
2019-03-13T11:31:01.552Z,12.60
2019-03-13T11:32:01.583Z,12.95
2019-03-13T11:33:01.616Z,13.36
2019-03-13T11:34:01.649Z,13.29
2019-03-13T11:35:01.681Z,13.41
2019-03-13T11:36:01.714Z,13.82
2019-03-13T11:37:01.748Z,13.89
2019-03-13T11:38:01.778Z,14.80
2019-03-13T11:39:01.811Z,16.27
2019-03-13T11:40:01.844Z,17.25
2019-03-13T11:41:01.877Z,15.60
2019-03-13T11:42:01.911Z,14.77
2019-03-13T11:43:01.943Z,14.22
2019-03-13T11:44:01.978Z,13.99
2019-03-13T11:45:02.023Z,13.96
2019-03-13T11:46:02.046Z,13.63
2019-03-13T11:47:02.078Z,13.54
2019-03-13T11:48:02.113Z,13.30
2019-03-13T11:49:02.147Z,13.19
2019-03-13T11:50:02.180Z,12.71
2019-03-13T11:51:02.216Z,12.59
2019-03-13T11:52:02.247Z,12.20
2019-03-13T11:53:02.280Z,11.85
2019-03-13T11:54:02.317Z,11.85
2019-03-13T11:55:02.351Z,11.95
2019-03-13T11:56:02.381Z,11.95
2019-03-13T11:57:02.413Z,11.72
2019-03-13T11:58:02.447Z,11.58
2019-03-13T11:59:02.482Z,11.52
2019-03-13T12:00:02.512Z,11.46
2019-03-13T12:01:02.543Z,11.42
2019-03-13T12:02:02.578Z,11.29
2019-03-13T12:03:02.607Z,11.03
2019-03-13T12:04:02.638Z,10.96
2019-03-13T12:05:02.671Z,10.79
2019-03-13T12:06:02.704Z,10.71
2019-03-13T12:07:02.734Z,10.71
2019-03-13T12:08:02.767Z,10.71
2019-03-13T12:09:02.805Z,10.89
2019-03-13T12:10:02.829Z,10.67
2019-03-13T12:11:02.860Z,10.63
2019-03-13T12:12:02.895Z,10.59
2019-03-13T12:13:02.921Z,10.68
2019-03-13T12:14:02.954Z,10.60
2019-03-13T12:15:02.984Z,10.53
2019-03-13T12:16:03.015Z,10.64
2019-03-13T12:17:03.071Z,10.67
2019-03-13T12:18:03.076Z,10.60
2019-03-13T12:19:03.107Z,10.26
2019-03-13T12:20:03.137Z,10.07
2019-03-13T12:21:03.168Z,9.90
2019-03-13T12:22:03.201Z,9.43
2019-03-13T12:23:03.228Z,9.43
2019-03-13T12:24:03.261Z,9.40
2019-03-13T12:25:03.287Z,9.33
2019-03-13T12:26:03.608Z,9.29
2019-03-13T12:27:03.347Z,9.31
2019-03-13T12:28:03.376Z,9.90
2019-03-13T12:29:03.406Z,10.59
2019-03-13T12:30:03.438Z,10.64
2019-03-13T12:31:03.474Z,11.07
2019-03-13T12:32:03.497Z,11.47
2019-03-13T12:33:03.526Z,11.76
2019-03-13T12:34:03.556Z,12.05
2019-03-13T12:35:03.587Z,12.38
2019-03-13T12:36:03.614Z,12.77
2019-03-13T12:37:03.645Z,12.93
2019-03-13T12:38:03.679Z,13.28
2019-03-13T12:39:03.705Z,13.63
2019-03-13T12:40:03.736Z,13.84
2019-03-13T12:41:03.770Z,14.27
2019-03-13T12:42:03.797Z,14.10
2019-03-13T12:43:03.832Z,14.27
2019-03-13T12:44:03.862Z,14.94
2019-03-13T12:45:03.898Z,17.00
2019-03-13T12:46:03.926Z,17.72
2019-03-13T12:47:03.956Z,19.08
2019-03-13T12:48:16.261Z,17.75
2019-03-13T12:49:04.026Z,16.98
2019-03-13T12:50:04.057Z,16.89
2019-03-13T12:51:04.088Z,16.12
2019-03-13T12:52:04.122Z,15.84
2019-03-13T12:53:04.156Z,17.66
2019-03-13T12:54:04.246Z,19.04
2019-03-13T12:55:04.225Z,20.06
2019-03-13T12:56:04.259Z,21.24
2019-03-13T12:57:04.337Z,21.54
2019-03-13T12:58:04.331Z,20.61
2019-03-13T12:59:04.367Z,19.48
2019-03-13T13:00:04.403Z,17.66
2019-03-13T13:01:04.449Z,16.33
2019-03-13T13:02:04.476Z,17.00
2019-03-13T13:03:04.512Z,18.69
2019-03-13T13:04:04.550Z,18.88
2019-03-13T13:05:04.587Z,20.64
2019-03-13T13:06:04.623Z,22.05
2019-03-13T13:07:04.663Z,21.79
2019-03-13T13:08:04.726Z,22.54
2019-03-13T13:09:04.739Z,22.35
2019-03-13T13:10:04.785Z,23.20
2019-03-13T13:11:04.826Z,24.06
2019-03-13T13:12:04.856Z,23.54